sensor_id;sensor_type;location;lat;lon;timestamp;temperature;humidity
26342;DHT22;14054;50.108;8.640;2023-09-18T00:00:25;21.60;99.90
26342;DHT22;14054;50.108;8.640;2023-09-18T00:02:51;21.60;99.90
26342;DHT22;14054;50.108;8.640;2023-09-18T00:05:17;21.60;99.90
26342;DHT22;14054;50.108;8.640;2023-09-18T00:07:43;21.60;99.90
26342;DHT22;14054;50.108;8.640;2023-09-18T00:10:13;21.60;99.90
26342;DHT22;14054;50.108;8.640;2023-09-18T00:12:39;21.50;99.90
26342;DHT22;14054;50.108;8.640;2023-09-18T00:15:05;21.50;99.90
26342;DHT22;14054;50.108;8.640;2023-09-18T00:17:31;21.50;99.90
26342;DHT22;14054;50.108;8.640;2023-09-18T00:19:56;21.50;99.90
26342;DHT22;14054;50.108;8.640;2023-09-18T00:22:22;21.50;99.90
26342;DHT22;14054;50.108;8.640;2023-09-18T00:24:47;21.50;99.90
26342;DHT22;14054;50.108;8.640;2023-09-18T00:27:13;21.50;99.90
26342;DHT22;14054;50.108;8.640;2023-09-18T00:29:39;21.50;99.90
26342;DHT22;14054;50.108;8.640;2023-09-18T00:32:05;21.50;99.90
26342;DHT22;14054;50.108;8.640;2023-09-18T00:34:31;21.50;99.90
26342;DHT22;14054;50.108;8.640;2023-09-18T00:36:59;21.40;99.90
26342;DHT22;14054;50.108;8.640;2023-09-18T00:39:25;21.40;99.90
26342;DHT22;14054;50.108;8.640;2023-09-18T00:41:51;21.40;99.90
26342;DHT22;14054;50.108;8.640;2023-09-18T00:44:20;21.30;99.90
26342;DHT22;14054;50.108;8.640;2023-09-18T00:46:46;21.40;99.90
26342;DHT22;14054;50.108;8.640;2023-09-18T00:49:12;21.40;99.90
26342;DHT22;14054;50.108;8.640;2023-09-18T00:51:38;21.40;99.90
26342;DHT22;14054;50.108;8.640;2023-09-18T00:54:03;21.50;99.90
26342;DHT22;14054;50.108;8.640;2023-09-18T00:56:29;21.50;99.90
26342;DHT22;14054;50.108;8.640;2023-09-18T00:58:55;21.50;99.90
26342;DHT22;14054;50.108;8.640;2023-09-18T01:01:20;21.50;99.90
26342;DHT22;14054;50.108;8.640;2023-09-18T01:03:51;21.50;99.90
26342;DHT22;14054;50.108;8.640;2023-09-18T01:06:19;21.40;99.90
26342;DHT22;14054;50.108;8.640;2023-09-18T01:08:47;21.40;99.90
26342;DHT22;14054;50.108;8.640;2023-09-18T01:11:30;21.40;99.90
26342;DHT22;14054;50.108;8.640;2023-09-18T01:16:48;21.50;99.90
26342;DHT22;14054;50.108;8.640;2023-09-18T01:19:16;21.50;99.90
26342;DHT22;14054;50.108;8.640;2023-09-18T01:21:41;21.50;99.90
26342;DHT22;14054;50.108;8.640;2023-09-18T01:24:07;21.50;99.90
26342;DHT22;14054;50.108;8.640;2023-09-18T01:26:32;21.50;99.90
26342;DHT22;14054;50.108;8.640;2023-09-18T01:28:58;21.40;99.90
26342;DHT22;14054;50.108;8.640;2023-09-18T01:31:23;21.40;99.90
26342;DHT22;14054;50.108;8.640;2023-09-18T01:33:52;21.40;99.90
26342;DHT22;14054;50.108;8.640;2023-09-18T01:36:18;21.40;99.90
26342;DHT22;14054;50.108;8.640;2023-09-18T01:38:46;21.50;99.90
26342;DHT22;14054;50.108;8.640;2023-09-18T01:41:11;21.50;99.90
26342;DHT22;14054;50.108;8.640;2023-09-18T01:43:37;21.50;99.90
26342;DHT22;14054;50.108;8.640;2023-09-18T01:46:02;21.50;99.90
26342;DHT22;14054;50.108;8.640;2023-09-18T01:48:29;21.50;99.90
26342;DHT22;14054;50.108;8.640;2023-09-18T01:50:54;21.40;99.90
26342;DHT22;14054;50.108;8.640;2023-09-18T01:53:20;21.50;99.90
26342;DHT22;14054;50.108;8.640;2023-09-18T01:55:45;21.40;99.90
26342;DHT22;14054;50.108;8.640;2023-09-18T01:58:12;21.40;99.90
26342;DHT22;14054;50.108;8.640;2023-09-18T02:00:39;21.50;99.90
26342;DHT22;14054;50.108;8.640;2023-09-18T02:03:05;21.50;99.90
26342;DHT22;14054;50.108;8.640;2023-09-18T02:05:30;21.30;99.90
26342;DHT22;14054;50.108;8.640;2023-09-18T02:07:56;21.30;99.90
26342;DHT22;14054;50.108;8.640;2023-09-18T02:10:21;21.20;99.90
26342;DHT22;14054;50.108;8.640;2023-09-18T02:12:47;21.20;99.90
26342;DHT22;14054;50.108;8.640;2023-09-18T02:15:12;21.10;99.90
26342;DHT22;14054;50.108;8.640;2023-09-18T02:17:38;21.20;99.90
26342;DHT22;14054;50.108;8.640;2023-09-18T02:20:05;21.20;99.90
26342;DHT22;14054;50.108;8.640;2023-09-18T02:22:37;21.20;99.90
26342;DHT22;14054;50.108;8.640;2023-09-18T02:25:04;21.20;99.90
26342;DHT22;14054;50.108;8.640;2023-09-18T02:27:29;21.20;99.90
26342;DHT22;14054;50.108;8.640;2023-09-18T02:29:55;21.10;99.90
26342;DHT22;14054;50.108;8.640;2023-09-18T02:32:20;21.00;99.90
26342;DHT22;14054;50.108;8.640;2023-09-18T02:34:46;20.80;99.90
26342;DHT22;14054;50.108;8.640;2023-09-18T02:37:11;20.70;99.90
26342;DHT22;14054;50.108;8.640;2023-09-18T02:39:37;20.60;99.90
26342;DHT22;14054;50.108;8.640;2023-09-18T02:42:02;20.60;99.90
26342;DHT22;14054;50.108;8.640;2023-09-18T02:44:28;20.60;99.90
26342;DHT22;14054;50.108;8.640;2023-09-18T02:46:53;20.60;99.90
26342;DHT22;14054;50.108;8.640;2023-09-18T02:49:19;20.60;99.90
26342;DHT22;14054;50.108;8.640;2023-09-18T02:51:44;20.50;99.90
26342;DHT22;14054;50.108;8.640;2023-09-18T02:54:10;20.50;99.90
26342;DHT22;14054;50.108;8.640;2023-09-18T02:56:35;20.50;99.90
26342;DHT22;14054;50.108;8.640;2023-09-18T02:59:01;20.50;99.90
26342;DHT22;14054;50.108;8.640;2023-09-18T03:01:26;20.60;99.90
26342;DHT22;14054;50.108;8.640;2023-09-18T03:03:52;20.40;99.90
26342;DHT22;14054;50.108;8.640;2023-09-18T03:06:17;20.40;99.90
26342;DHT22;14054;50.108;8.640;2023-09-18T03:08:43;20.30;99.90
26342;DHT22;14054;50.108;8.640;2023-09-18T03:11:12;20.40;99.90
26342;DHT22;14054;50.108;8.640;2023-09-18T03:13:43;20.30;99.90
26342;DHT22;14054;50.108;8.640;2023-09-18T03:16:10;20.30;99.90
26342;DHT22;14054;50.108;8.640;2023-09-18T03:18:36;20.20;99.90
26342;DHT22;14054;50.108;8.640;2023-09-18T03:21:02;20.20;99.90
26342;DHT22;14054;50.108;8.640;2023-09-18T03:23:28;20.10;99.90
26342;DHT22;14054;50.108;8.640;2023-09-18T03:25:53;20.20;99.90
26342;DHT22;14054;50.108;8.640;2023-09-18T03:28:19;20.20;99.90
26342;DHT22;14054;50.108;8.640;2023-09-18T03:30:44;20.20;99.90
26342;DHT22;14054;50.108;8.640;2023-09-18T03:33:10;20.10;99.90
26342;DHT22;14054;50.108;8.640;2023-09-18T03:35:46;20.20;99.90
26342;DHT22;14054;50.108;8.640;2023-09-18T03:38:12;20.20;99.90
26342;DHT22;14054;50.108;8.640;2023-09-18T03:40:38;20.30;99.90
26342;DHT22;14054;50.108;8.640;2023-09-18T03:43:03;20.30;99.90
26342;DHT22;14054;50.108;8.640;2023-09-18T03:45:29;20.30;99.90
26342;DHT22;14054;50.108;8.640;2023-09-18T03:47:54;20.20;99.90
26342;DHT22;14054;50.108;8.640;2023-09-18T03:50:20;20.20;99.90
26342;DHT22;14054;50.108;8.640;2023-09-18T03:52:45;20.30;99.90
26342;DHT22;14054;50.108;8.640;2023-09-18T03:55:11;20.20;99.90
26342;DHT22;14054;50.108;8.640;2023-09-18T03:57:38;20.30;99.90
26342;DHT22;14054;50.108;8.640;2023-09-18T04:00:04;20.30;99.90
26342;DHT22;14054;50.108;8.640;2023-09-18T04:02:31;20.30;99.90
26342;DHT22;14054;50.108;8.640;2023-09-18T04:04:56;20.30;99.90
26342;DHT22;14054;50.108;8.640;2023-09-18T04:07:22;20.30;99.90
26342;DHT22;14054;50.108;8.640;2023-09-18T04:09:47;20.30;99.90
26342;DHT22;14054;50.108;8.640;2023-09-18T04:12:13;20.30;99.90
26342;DHT22;14054;50.108;8.640;2023-09-18T04:14:39;20.30;99.90
26342;DHT22;14054;50.108;8.640;2023-09-18T04:17:04;20.20;99.90
26342;DHT22;14054;50.108;8.640;2023-09-18T04:19:29;20.20;99.90
26342;DHT22;14054;50.108;8.640;2023-09-18T04:21:55;20.30;99.90
26342;DHT22;14054;50.108;8.640;2023-09-18T04:24:22;20.30;99.90
26342;DHT22;14054;50.108;8.640;2023-09-18T04:26:48;20.30;99.90
26342;DHT22;14054;50.108;8.640;2023-09-18T04:29:16;20.20;99.90
26342;DHT22;14054;50.108;8.640;2023-09-18T04:31:41;20.20;99.90
26342;DHT22;14054;50.108;8.640;2023-09-18T04:34:07;20.10;99.90
26342;DHT22;14054;50.108;8.640;2023-09-18T04:36:32;20.10;99.90
26342;DHT22;14054;50.108;8.640;2023-09-18T04:38:58;20.10;99.90
26342;DHT22;14054;50.108;8.640;2023-09-18T04:41:23;20.10;99.90
26342;DHT22;14054;50.108;8.640;2023-09-18T04:43:49;20.10;99.90
26342;DHT22;14054;50.108;8.640;2023-09-18T04:46:16;20.20;99.90
26342;DHT22;14054;50.108;8.640;2023-09-18T04:48:41;20.10;99.90
26342;DHT22;14054;50.108;8.640;2023-09-18T04:51:07;20.10;99.90
26342;DHT22;14054;50.108;8.640;2023-09-18T04:53:32;20.00;99.90
26342;DHT22;14054;50.108;8.640;2023-09-18T04:55:58;20.00;99.90
26342;DHT22;14054;50.108;8.640;2023-09-18T04:58:24;20.00;99.90
26342;DHT22;14054;50.108;8.640;2023-09-18T05:00:56;20.00;99.90
26342;DHT22;14054;50.108;8.640;2023-09-18T05:03:22;19.90;99.90
26342;DHT22;14054;50.108;8.640;2023-09-18T05:05:48;19.90;99.90
26342;DHT22;14054;50.108;8.640;2023-09-18T05:08:13;20.00;99.90
26342;DHT22;14054;50.108;8.640;2023-09-18T05:10:39;20.00;99.90
26342;DHT22;14054;50.108;8.640;2023-09-18T05:13:05;19.90;99.90
26342;DHT22;14054;50.108;8.640;2023-09-18T05:15:30;19.90;99.90
26342;DHT22;14054;50.108;8.640;2023-09-18T05:17:57;20.00;99.90
26342;DHT22;14054;50.108;8.640;2023-09-18T05:20:24;19.80;99.90
26342;DHT22;14054;50.108;8.640;2023-09-18T05:22:51;19.80;99.90
26342;DHT22;14054;50.108;8.640;2023-09-18T05:25:21;19.80;99.90
26342;DHT22;14054;50.108;8.640;2023-09-18T05:27:54;19.90;99.90
26342;DHT22;14054;50.108;8.640;2023-09-18T05:30:28;20.00;99.90
26342;DHT22;14054;50.108;8.640;2023-09-18T05:32:55;20.00;99.90
26342;DHT22;14054;50.108;8.640;2023-09-18T05:35:21;20.10;99.90
26342;DHT22;14054;50.108;8.640;2023-09-18T05:37:47;20.10;99.90
26342;DHT22;14054;50.108;8.640;2023-09-18T05:40:13;20.10;99.90
26342;DHT22;14054;50.108;8.640;2023-09-18T05:42:42;20.20;99.90
26342;DHT22;14054;50.108;8.640;2023-09-18T05:45:13;20.20;99.90
26342;DHT22;14054;50.108;8.640;2023-09-18T05:47:39;20.20;99.90
26342;DHT22;14054;50.108;8.640;2023-09-18T05:50:12;20.20;99.90
26342;DHT22;14054;50.108;8.640;2023-09-18T05:52:46;20.20;99.90
26342;DHT22;14054;50.108;8.640;2023-09-18T05:55:14;20.20;99.90
26342;DHT22;14054;50.108;8.640;2023-09-18T05:57:40;20.20;99.90
26342;DHT22;14054;50.108;8.640;2023-09-18T06:00:07;20.20;99.90
26342;DHT22;14054;50.108;8.640;2023-09-18T06:02:33;20.30;99.90
26342;DHT22;14054;50.108;8.640;2023-09-18T06:04:59;20.30;99.90
26342;DHT22;14054;50.108;8.640;2023-09-18T06:07:28;20.30;99.90
26342;DHT22;14054;50.108;8.640;2023-09-18T06:09:54;20.40;99.90
26342;DHT22;14054;50.108;8.640;2023-09-18T06:12:20;20.40;99.90
26342;DHT22;14054;50.108;8.640;2023-09-18T06:14:49;20.40;99.90
26342;DHT22;14054;50.108;8.640;2023-09-18T06:17:14;20.40;99.90
26342;DHT22;14054;50.108;8.640;2023-09-18T06:19:41;20.40;99.90
26342;DHT22;14054;50.108;8.640;2023-09-18T06:22:06;20.40;99.90
26342;DHT22;14054;50.108;8.640;2023-09-18T06:24:34;20.40;99.90
26342;DHT22;14054;50.108;8.640;2023-09-18T06:26:59;20.40;99.90
26342;DHT22;14054;50.108;8.640;2023-09-18T06:29:25;20.40;99.90
26342;DHT22;14054;50.108;8.640;2023-09-18T06:31:50;20.40;99.90
26342;DHT22;14054;50.108;8.640;2023-09-18T06:34:16;20.40;99.90
26342;DHT22;14054;50.108;8.640;2023-09-18T06:36:42;20.40;99.90
26342;DHT22;14054;50.108;8.640;2023-09-18T06:39:07;20.40;99.90
26342;DHT22;14054;50.108;8.640;2023-09-18T06:41:33;20.40;99.90
26342;DHT22;14054;50.108;8.640;2023-09-18T06:44:00;20.50;99.90
26342;DHT22;14054;50.108;8.640;2023-09-18T06:46:29;20.50;99.90
26342;DHT22;14054;50.108;8.640;2023-09-18T06:48:55;20.50;99.90
26342;DHT22;14054;50.108;8.640;2023-09-18T06:51:21;20.50;99.90
26342;DHT22;14054;50.108;8.640;2023-09-18T06:53:47;20.50;99.90
26342;DHT22;14054;50.108;8.640;2023-09-18T06:56:12;20.50;99.90
26342;DHT22;14054;50.108;8.640;2023-09-18T06:58:38;20.50;99.90
26342;DHT22;14054;50.108;8.640;2023-09-18T07:01:04;20.50;99.90
26342;DHT22;14054;50.108;8.640;2023-09-18T07:03:35;20.50;99.90
26342;DHT22;14054;50.108;8.640;2023-09-18T07:06:02;20.50;99.90
26342;DHT22;14054;50.108;8.640;2023-09-18T07:08:28;20.50;99.90
26342;DHT22;14054;50.108;8.640;2023-09-18T07:10:54;20.60;99.90
26342;DHT22;14054;50.108;8.640;2023-09-18T07:13:19;20.60;99.90
26342;DHT22;14054;50.108;8.640;2023-09-18T07:15:45;20.60;99.90
26342;DHT22;14054;50.108;8.640;2023-09-18T07:18:10;20.50;99.90
26342;DHT22;14054;50.108;8.640;2023-09-18T07:20:40;20.60;99.90
26342;DHT22;14054;50.108;8.640;2023-09-18T07:23:05;20.50;99.90
26342;DHT22;14054;50.108;8.640;2023-09-18T07:25:31;20.60;99.90
26342;DHT22;14054;50.108;8.640;2023-09-18T07:27:56;20.60;99.90
26342;DHT22;14054;50.108;8.640;2023-09-18T07:30:22;20.60;99.90
26342;DHT22;14054;50.108;8.640;2023-09-18T07:32:52;20.60;99.90
26342;DHT22;14054;50.108;8.640;2023-09-18T07:35:21;20.60;99.90
26342;DHT22;14054;50.108;8.640;2023-09-18T07:37:48;20.70;99.90
26342;DHT22;14054;50.108;8.640;2023-09-18T07:40:13;20.60;99.90
26342;DHT22;14054;50.108;8.640;2023-09-18T07:42:39;20.70;99.90
26342;DHT22;14054;50.108;8.640;2023-09-18T07:45:05;20.70;99.90
26342;DHT22;14054;50.108;8.640;2023-09-18T07:47:30;20.70;99.90
26342;DHT22;14054;50.108;8.640;2023-09-18T07:49:57;20.80;99.90
26342;DHT22;14054;50.108;8.640;2023-09-18T07:52:22;20.90;99.90
26342;DHT22;14054;50.108;8.640;2023-09-18T07:54:48;20.90;99.90
26342;DHT22;14054;50.108;8.640;2023-09-18T07:57:13;21.00;99.90
26342;DHT22;14054;50.108;8.640;2023-09-18T07:59:39;20.90;99.90
26342;DHT22;14054;50.108;8.640;2023-09-18T08:02:05;20.90;99.90
26342;DHT22;14054;50.108;8.640;2023-09-18T08:04:31;20.90;99.90
26342;DHT22;14054;50.108;8.640;2023-09-18T08:06:57;21.10;99.90
26342;DHT22;14054;50.108;8.640;2023-09-18T08:09:23;21.10;99.90
26342;DHT22;14054;50.108;8.640;2023-09-18T08:11:48;21.10;99.90
26342;DHT22;14054;50.108;8.640;2023-09-18T08:14:16;21.20;99.90
26342;DHT22;14054;50.108;8.640;2023-09-18T08:16:42;21.40;99.90
26342;DHT22;14054;50.108;8.640;2023-09-18T08:19:08;21.40;99.90
26342;DHT22;14054;50.108;8.640;2023-09-18T08:21:34;21.50;99.90
26342;DHT22;14054;50.108;8.640;2023-09-18T08:24:00;21.50;99.90
26342;DHT22;14054;50.108;8.640;2023-09-18T08:26:29;21.60;99.90
26342;DHT22;14054;50.108;8.640;2023-09-18T08:28:55;21.80;99.90
26342;DHT22;14054;50.108;8.640;2023-09-18T08:31:20;21.70;99.90
26342;DHT22;14054;50.108;8.640;2023-09-18T08:33:46;21.80;99.90
26342;DHT22;14054;50.108;8.640;2023-09-18T08:36:11;21.80;99.90
26342;DHT22;14054;50.108;8.640;2023-09-18T08:38:37;21.80;99.90
26342;DHT22;14054;50.108;8.640;2023-09-18T08:41:03;21.90;99.90
26342;DHT22;14054;50.108;8.640;2023-09-18T08:43:31;22.00;99.90
26342;DHT22;14054;50.108;8.640;2023-09-18T08:45:57;22.00;99.90
26342;DHT22;14054;50.108;8.640;2023-09-18T08:48:28;21.90;99.90
26342;DHT22;14054;50.108;8.640;2023-09-18T08:51:01;22.10;99.90
26342;DHT22;14054;50.108;8.640;2023-09-18T08:53:28;22.10;99.90
26342;DHT22;14054;50.108;8.640;2023-09-18T08:55:54;22.30;99.90
26342;DHT22;14054;50.108;8.640;2023-09-18T08:58:24;22.40;99.90
26342;DHT22;14054;50.108;8.640;2023-09-18T09:00:50;22.30;99.90
26342;DHT22;14054;50.108;8.640;2023-09-18T09:03:15;22.40;99.90
26342;DHT22;14054;50.108;8.640;2023-09-18T09:05:41;22.30;99.90
26342;DHT22;14054;50.108;8.640;2023-09-18T09:08:06;22.30;99.90
26342;DHT22;14054;50.108;8.640;2023-09-18T09:10:32;22.30;99.90
26342;DHT22;14054;50.108;8.640;2023-09-18T09:12:59;22.20;99.90
26342;DHT22;14054;50.108;8.640;2023-09-18T09:15:31;22.10;99.90
26342;DHT22;14054;50.108;8.640;2023-09-18T09:18:07;22.10;99.90
26342;DHT22;14054;50.108;8.640;2023-09-18T09:20:34;22.10;99.90
26342;DHT22;14054;50.108;8.640;2023-09-18T09:23:03;22.20;99.90
26342;DHT22;14054;50.108;8.640;2023-09-18T09:25:31;22.20;99.90
26342;DHT22;14054;50.108;8.640;2023-09-18T09:28:05;22.20;99.90
26342;DHT22;14054;50.108;8.640;2023-09-18T09:30:32;22.10;99.90
26342;DHT22;14054;50.108;8.640;2023-09-18T09:32:58;22.10;99.90
26342;DHT22;14054;50.108;8.640;2023-09-18T09:35:33;22.10;99.90
26342;DHT22;14054;50.108;8.640;2023-09-18T09:38:10;22.10;99.90
26342;DHT22;14054;50.108;8.640;2023-09-18T09:40:39;22.20;99.90
26342;DHT22;14054;50.108;8.640;2023-09-18T09:43:10;22.10;99.90
26342;DHT22;14054;50.108;8.640;2023-09-18T09:45:36;22.10;99.90
26342;DHT22;14054;50.108;8.640;2023-09-18T09:48:06;22.10;99.90
26342;DHT22;14054;50.108;8.640;2023-09-18T09:50:33;22.10;99.90
26342;DHT22;14054;50.108;8.640;2023-09-18T09:52:59;22.10;99.90
26342;DHT22;14054;50.108;8.640;2023-09-18T09:55:30;22.20;99.90
26342;DHT22;14054;50.108;8.640;2023-09-18T09:58:00;22.10;99.90
26342;DHT22;14054;50.108;8.640;2023-09-18T10:00:41;22.10;99.90
26342;DHT22;14054;50.108;8.640;2023-09-18T10:03:13;22.00;99.90
26342;DHT22;14054;50.108;8.640;2023-09-18T10:05:41;22.00;99.90
26342;DHT22;14054;50.108;8.640;2023-09-18T10:08:10;22.00;99.90
26342;DHT22;14054;50.108;8.640;2023-09-18T10:10:39;22.00;99.90
26342;DHT22;14054;50.108;8.640;2023-09-18T10:13:17;22.10;99.90
26342;DHT22;14054;50.108;8.640;2023-09-18T10:15:50;22.20;99.90
26342;DHT22;14054;50.108;8.640;2023-09-18T10:18:55;22.20;99.90
26342;DHT22;14054;50.108;8.640;2023-09-18T10:21:35;22.30;99.90
26342;DHT22;14054;50.108;8.640;2023-09-18T10:24:17;22.20;99.90
26342;DHT22;14054;50.108;8.640;2023-09-18T10:29:19;22.30;99.90
26342;DHT22;14054;50.108;8.640;2023-09-18T10:31:47;22.40;99.90
26342;DHT22;14054;50.108;8.640;2023-09-18T10:34:13;22.30;99.90
26342;DHT22;14054;50.108;8.640;2023-09-18T10:36:41;22.40;99.90
26342;DHT22;14054;50.108;8.640;2023-09-18T10:39:09;22.40;99.90
26342;DHT22;14054;50.108;8.640;2023-09-18T10:41:36;22.50;99.90
26342;DHT22;14054;50.108;8.640;2023-09-18T10:44:04;22.70;99.90
26342;DHT22;14054;50.108;8.640;2023-09-18T10:46:30;22.60;99.90
26342;DHT22;14054;50.108;8.640;2023-09-18T10:48:59;22.60;99.90
26342;DHT22;14054;50.108;8.640;2023-09-18T10:51:25;22.50;99.90
26342;DHT22;14054;50.108;8.640;2023-09-18T10:53:51;22.50;99.90
26342;DHT22;14054;50.108;8.640;2023-09-18T10:56:19;22.50;99.90
26342;DHT22;14054;50.108;8.640;2023-09-18T10:58:45;22.60;99.90
26342;DHT22;14054;50.108;8.640;2023-09-18T11:01:12;22.70;99.90
26342;DHT22;14054;50.108;8.640;2023-09-18T11:03:38;22.80;99.90
26342;DHT22;14054;50.108;8.640;2023-09-18T11:06:06;22.90;99.90
26342;DHT22;14054;50.108;8.640;2023-09-18T11:08:35;22.90;99.90
26342;DHT22;14054;50.108;8.640;2023-09-18T11:11:09;23.00;99.90
26342;DHT22;14054;50.108;8.640;2023-09-18T11:13:51;23.00;99.90
26342;DHT22;14054;50.108;8.640;2023-09-18T11:21:25;23.00;99.90
26342;DHT22;14054;50.108;8.640;2023-09-18T11:24:02;23.20;99.90
26342;DHT22;14054;50.108;8.640;2023-09-18T11:26:34;23.20;99.90
26342;DHT22;14054;50.108;8.640;2023-09-18T11:29:11;23.20;99.90
26342;DHT22;14054;50.108;8.640;2023-09-18T11:31:51;23.20;99.90
26342;DHT22;14054;50.108;8.640;2023-09-18T11:34:25;23.30;99.90
26342;DHT22;14054;50.108;8.640;2023-09-18T11:36:54;23.20;99.90
26342;DHT22;14054;50.108;8.640;2023-09-18T11:39:37;23.20;99.90
26342;DHT22;14054;50.108;8.640;2023-09-18T11:42:16;23.20;99.90
26342;DHT22;14054;50.108;8.640;2023-09-18T11:44:43;23.30;99.90
26342;DHT22;14054;50.108;8.640;2023-09-18T11:47:13;23.10;99.90
26342;DHT22;14054;50.108;8.640;2023-09-18T11:49:56;23.00;99.90
26342;DHT22;14054;50.108;8.640;2023-09-18T11:52:25;23.20;99.90
26342;DHT22;14054;50.108;8.640;2023-09-18T11:54:51;23.20;99.90
26342;DHT22;14054;50.108;8.640;2023-09-18T11:57:18;23.50;99.90
26342;DHT22;14054;50.108;8.640;2023-09-18T11:59:45;23.50;99.90
26342;DHT22;14054;50.108;8.640;2023-09-18T12:02:14;23.60;99.90
26342;DHT22;14054;50.108;8.640;2023-09-18T12:04:56;23.80;99.90
26342;DHT22;14054;50.108;8.640;2023-09-18T12:07:22;24.00;99.90
26342;DHT22;14054;50.108;8.640;2023-09-18T12:09:48;24.00;99.90
26342;DHT22;14054;50.108;8.640;2023-09-18T12:12:15;23.70;99.90
26342;DHT22;14054;50.108;8.640;2023-09-18T12:14:41;23.60;99.90
26342;DHT22;14054;50.108;8.640;2023-09-18T12:17:14;23.70;99.90
26342;DHT22;14054;50.108;8.640;2023-09-18T12:19:51;23.60;99.90
26342;DHT22;14054;50.108;8.640;2023-09-18T12:22:29;23.60;99.90
26342;DHT22;14054;50.108;8.640;2023-09-18T12:27:36;23.70;99.90
26342;DHT22;14054;50.108;8.640;2023-09-18T12:30:06;23.70;99.90
26342;DHT22;14054;50.108;8.640;2023-09-18T12:32:32;23.80;99.90
26342;DHT22;14054;50.108;8.640;2023-09-18T12:35:01;23.90;99.90
26342;DHT22;14054;50.108;8.640;2023-09-18T12:37:26;23.80;99.90
26342;DHT22;14054;50.108;8.640;2023-09-18T12:39:52;24.20;99.90
26342;DHT22;14054;50.108;8.640;2023-09-18T12:42:19;24.80;99.90
26342;DHT22;14054;50.108;8.640;2023-09-18T12:44:48;25.70;99.90
26342;DHT22;14054;50.108;8.640;2023-09-18T12:47:14;26.70;99.90
26342;DHT22;14054;50.108;8.640;2023-09-18T12:49:40;26.70;99.90
26342;DHT22;14054;50.108;8.640;2023-09-18T12:52:05;27.30;99.90
26342;DHT22;14054;50.108;8.640;2023-09-18T12:57:06;28.40;99.90
26342;DHT22;14054;50.108;8.640;2023-09-18T12:59:33;27.70;99.90
26342;DHT22;14054;50.108;8.640;2023-09-18T13:01:59;28.60;99.90
26342;DHT22;14054;50.108;8.640;2023-09-18T13:04:24;29.00;99.90
26342;DHT22;14054;50.108;8.640;2023-09-18T13:07:08;29.50;99.90
26342;DHT22;14054;50.108;8.640;2023-09-18T13:09:34;29.60;99.90
26342;DHT22;14054;50.108;8.640;2023-09-18T13:12:00;28.70;99.90
26342;DHT22;14054;50.108;8.640;2023-09-18T13:14:26;27.70;99.90
26342;DHT22;14054;50.108;8.640;2023-09-18T13:16:52;27.00;99.90
26342;DHT22;14054;50.108;8.640;2023-09-18T13:19:18;26.60;99.90
26342;DHT22;14054;50.108;8.640;2023-09-18T13:21:49;26.50;99.90
26342;DHT22;14054;50.108;8.640;2023-09-18T13:24:28;26.10;99.90
26342;DHT22;14054;50.108;8.640;2023-09-18T13:26:55;25.80;99.90
26342;DHT22;14054;50.108;8.640;2023-09-18T13:29:23;26.50;99.90
26342;DHT22;14054;50.108;8.640;2023-09-18T13:31:49;26.80;99.90
26342;DHT22;14054;50.108;8.640;2023-09-18T13:34:15;26.30;99.90
26342;DHT22;14054;50.108;8.640;2023-09-18T13:36:44;25.80;99.90
26342;DHT22;14054;50.108;8.640;2023-09-18T13:39:11;25.40;99.90
26342;DHT22;14054;50.108;8.640;2023-09-18T13:41:36;25.30;99.90
26342;DHT22;14054;50.108;8.640;2023-09-18T13:44:02;25.50;99.90
26342;DHT22;14054;50.108;8.640;2023-09-18T13:46:28;25.80;99.90
26342;DHT22;14054;50.108;8.640;2023-09-18T13:48:53;25.70;99.90
26342;DHT22;14054;50.108;8.640;2023-09-18T13:51:18;25.70;99.90
26342;DHT22;14054;50.108;8.640;2023-09-18T13:53:44;25.40;99.90
26342;DHT22;14054;50.108;8.640;2023-09-18T13:56:09;25.10;99.90
26342;DHT22;14054;50.108;8.640;2023-09-18T13:58:35;25.00;99.90
26342;DHT22;14054;50.108;8.640;2023-09-18T14:01:06;25.00;99.90
26342;DHT22;14054;50.108;8.640;2023-09-18T14:03:33;25.00;99.90
26342;DHT22;14054;50.108;8.640;2023-09-18T14:05:58;24.80;99.90
26342;DHT22;14054;50.108;8.640;2023-09-18T14:08:24;24.80;99.90
26342;DHT22;14054;50.108;8.640;2023-09-18T14:10:50;24.90;99.90
26342;DHT22;14054;50.108;8.640;2023-09-18T14:13:15;24.80;99.90
26342;DHT22;14054;50.108;8.640;2023-09-18T14:15:41;24.90;99.90
26342;DHT22;14054;50.108;8.640;2023-09-18T14:18:06;25.00;99.90
26342;DHT22;14054;50.108;8.640;2023-09-18T14:20:31;25.00;99.90
26342;DHT22;14054;50.108;8.640;2023-09-18T14:22:57;24.80;99.90
26342;DHT22;14054;50.108;8.640;2023-09-18T14:25:23;24.80;99.90
26342;DHT22;14054;50.108;8.640;2023-09-18T14:27:48;24.80;99.90
26342;DHT22;14054;50.108;8.640;2023-09-18T14:30:14;24.80;99.90
26342;DHT22;14054;50.108;8.640;2023-09-18T14:32:39;25.00;99.90
26342;DHT22;14054;50.108;8.640;2023-09-18T14:35:06;25.10;99.90
26342;DHT22;14054;50.108;8.640;2023-09-18T14:37:34;25.00;99.90
26342;DHT22;14054;50.108;8.640;2023-09-18T14:39:59;24.60;99.90
26342;DHT22;14054;50.108;8.640;2023-09-18T14:42:25;24.70;99.90
26342;DHT22;14054;50.108;8.640;2023-09-18T14:44:50;24.70;99.90
26342;DHT22;14054;50.108;8.640;2023-09-18T14:47:16;24.80;99.90
26342;DHT22;14054;50.108;8.640;2023-09-18T14:49:41;24.70;99.90
26342;DHT22;14054;50.108;8.640;2023-09-18T14:52:11;24.50;99.90
26342;DHT22;14054;50.108;8.640;2023-09-18T14:54:37;24.50;99.90
26342;DHT22;14054;50.108;8.640;2023-09-18T14:57:02;24.40;99.90
26342;DHT22;14054;50.108;8.640;2023-09-18T14:59:30;24.50;99.90
26342;DHT22;14054;50.108;8.640;2023-09-18T15:01:55;24.30;99.90
26342;DHT22;14054;50.108;8.640;2023-09-18T15:04:21;24.40;99.90
26342;DHT22;14054;50.108;8.640;2023-09-18T15:06:47;24.40;99.90
26342;DHT22;14054;50.108;8.640;2023-09-18T15:09:13;24.50;99.90
26342;DHT22;14054;50.108;8.640;2023-09-18T15:11:39;24.30;99.90
26342;DHT22;14054;50.108;8.640;2023-09-18T15:14:04;24.20;99.90
26342;DHT22;14054;50.108;8.640;2023-09-18T15:16:30;24.10;99.90
26342;DHT22;14054;50.108;8.640;2023-09-18T15:18:56;23.90;99.90
26342;DHT22;14054;50.108;8.640;2023-09-18T15:21:21;24.00;99.90
26342;DHT22;14054;50.108;8.640;2023-09-18T15:23:47;24.00;99.90
26342;DHT22;14054;50.108;8.640;2023-09-18T15:26:15;23.90;99.90
26342;DHT22;14054;50.108;8.640;2023-09-18T15:28:41;24.00;99.90
26342;DHT22;14054;50.108;8.640;2023-09-18T15:31:06;23.90;99.90
26342;DHT22;14054;50.108;8.640;2023-09-18T15:33:31;23.90;99.90
26342;DHT22;14054;50.108;8.640;2023-09-18T15:35:57;23.80;99.90
26342;DHT22;14054;50.108;8.640;2023-09-18T15:38:23;23.70;99.90
26342;DHT22;14054;50.108;8.640;2023-09-18T15:40:49;23.60;99.90
26342;DHT22;14054;50.108;8.640;2023-09-18T15:43:15;23.50;99.90
26342;DHT22;14054;50.108;8.640;2023-09-18T15:45:42;23.40;99.90